San Antonio — WDF9683 — position and weather

sailwx.info

Track history (hours):
 
Tides and Currents Weather Stations Pressure Air Temp Water Temp Dewpoint Dewpoint Depression Visibility Wind Speed Wind Dir Waves Ship Positions

San Antonio

Owner: Higman Barge Lines, Inc., Orange, TX. More information available from US FCC via Universal Licensing System and Coast Guard Vessel Documentation Center.

Last reported at 2018-May-27 22:26 UTC. Time now 2018-May-28 01:02 UTC.
Position N 29°47' W 095°05'.

Length 20 m; draft 9 m.

Type: Towing. MMSI: 367507730.

Date/timePositionNaut miles runAvg speedWind from/ knotsBaromVisibWave heightAir tempDewpointWater temp
2018-May-27 22:26N 29°47' W 095°05'3 6.1
2018-May-27 22:00N 29°45' W 095°06'3 0.4
2018-May-27 13:27N 29°48' W 095°04'0 0.3
2018-May-27 12:41N 29°47' W 095°04'1 0.2
2018-May-27 08:23N 29°47' W 095°05'1 0.1
2018-May-26 23:23N 29°46' W 095°05'3 0.5
2018-May-26 17:40N 29°44' W 095°08'0 0.0
2018-May-26 17:14N 29°44' W 095°08'0 0.0
2018-May-26 16:15N 29°44' W 095°08'0 0.0
2018-May-26 15:57N 29°44' W 095°08'0 0.0
2018-May-26 15:28N 29°44' W 095°08'0 0.0
2018-May-26 05:07N 29°44' W 095°08'0 0.0
2018-May-26 04:55N 29°44' W 095°08'0 0.0
2018-May-26 04:25N 29°44' W 095°08'0 0.0
2018-May-26 03:55N 29°44' W 095°08'0 0.0
2018-May-26 03:25N 29°44' W 095°08'1 1.0
2018-May-26 02:33N 29°44' W 095°07'0 1.1
2018-May-26 02:08N 29°44' W 095°07'3 1.0
2018-May-25 23:04N 29°47' W 095°05'0 0.0
2018-May-25 22:59N 29°47' W 095°05'0 0.0
2018-May-25 22:30N 29°47' W 095°05'0 0.0
2018-May-25 21:56N 29°47' W 095°05'0 0.0
2018-May-25 21:30N 29°47' W 095°05'0 0.0
2018-May-25 21:00N 29°47' W 095°05'0 0.0
2018-May-25 20:30N 29°47' W 095°05'0 0.0
2018-May-25 19:58N 29°47' W 095°05'0 0.0
2018-May-25 19:28N 29°47' W 095°05'0 0.0
2018-May-25 19:00N 29°47' W 095°05'0 0.0
2018-May-25 18:29N 29°47' W 095°05'0 0.0
2018-May-25 18:00N 29°47' W 095°05'0 0.0
2018-May-25 17:29N 29°47' W 095°05'0 0.0
2018-May-25 17:00N 29°47' W 095°05'0 0.0
2018-May-25 16:28N 29°47' W 095°05'0 0.0
2018-May-25 15:59N 29°47' W 095°05'0 0.0
2018-May-25 15:30N 29°47' W 095°05'0 0.0
2018-May-25 07:31N 29°47' W 095°05'0 0.0
2018-May-25 07:16N 29°47' W 095°05'0 0.0
2018-May-25 06:57N 29°47' W 095°05'0 0.0
2018-May-25 05:57N 29°47' W 095°05'1 1.1
2018-May-25 05:22N 29°46' W 095°05'2 3.8
2018-May-25 04:52N 29°44' W 095°04'2 6.1
2018-May-25 04:28N 29°43' W 095°01'3 5.9
2018-May-25 04:00N 29°41' W 094°59'3 6.7
2018-May-25 03:30N 29°38' W 094°58'3 7.1
2018-May-25 03:00N 29°35' W 094°56'4 7.0
2018-May-25 02:30N 29°32' W 094°54'4 7.3
2018-May-25 02:00N 29°29' W 094°51'4 7.5
2018-May-25 01:30N 29°25' W 094°50'3 6.5
2018-May-25 01:00N 29°22' W 094°48'9 5.6
2018-May-24 23:24N 29°28' W 094°40'12 5.3
2018-May-24 21:03N 29°34' W 094°27'0 3.8
2018-May-24 21:00N 29°34' W 094°27'2 4.1
2018-May-24 20:27N 29°35' W 094°25'1 2.0
2018-May-24 20:00N 29°36' W 094°24'2 4.2
2018-May-24 19:29N 29°36' W 094°22'3 5.6
2018-May-24 19:00N 29°38' W 094°19'3 5.6
2018-May-24 18:30N 29°39' W 094°16'3 5.6
2018-May-24 18:00N 29°40' W 094°13'3 5.7
2018-May-24 17:30N 29°41' W 094°10'2 3.8
2018-May-24 17:00N 29°42' W 094°08'3 5.6
2018-May-24 16:30N 29°44' W 094°06'3 6.1
2018-May-24 16:01N 29°46' W 094°03'3 6.0
2018-May-24 15:30N 29°48' W 094°00'3 5.3
2018-May-24 15:00N 29°49' W 093°58'4 7.6
2018-May-24 14:30N 29°53' W 093°56'4 9.0
2018-May-24 14:00N 29°56' W 093°52'3 6.7
2018-May-24 13:30N 29°59' W 093°50'25 5.6
2018-May-24 09:00N 30°04' W 093°22'0 0.5
2018-May-24 08:30N 30°04' W 093°21'1 1.3
2018-May-24 08:00N 30°04' W 093°21'2 4.1
2018-May-24 07:30N 30°06' W 093°19'1 2.8
2018-May-24 07:00N 30°05' W 093°18'1 1.0
2018-May-24 06:30N 30°05' W 093°17'1 2.2
2018-May-24 06:00N 30°04' W 093°16'0 0.5
2018-May-24 05:30N 30°04' W 093°16'0 0.0
2018-May-24 05:00N 30°04' W 093°16'0 0.0
2018-May-24 04:30N 30°04' W 093°16'0 0.0
2018-May-24 03:59N 30°04' W 093°16'0 0.0
2018-May-24 03:30N 30°04' W 093°16'0 0.0
2018-May-24 03:00N 30°04' W 093°16'0 0.0
2018-May-24 02:30N 30°04' W 093°16'0 0.0
2018-May-24 01:59N 30°04' W 093°16'0 0.0
2018-May-24 01:30N 30°04' W 093°16'0 0.0
2018-May-24 01:00N 30°04' W 093°16'0 0.1
2018-May-24 00:29N 30°04' W 093°16'0 0.0
2018-May-24 00:01N 30°04' W 093°16'0 0.0
2018-May-23 23:31N 30°04' W 093°16'0 0.4
2018-May-23 23:00N 30°04' W 093°16'1 1.0
2018-May-23 22:30N 30°03' W 093°16'1 2.6
2018-May-23 22:00N 30°02' W 093°15'0 0.8
2018-May-23 21:30N 30°02' W 093°15'0 0.0
2018-May-23 21:00N 30°02' W 093°15'0 0.0
2018-May-23 20:31N 30°02' W 093°15'0 0.0
2018-May-23 20:01N 30°02' W 093°15'0 0.0
2018-May-23 19:30N 30°02' W 093°15'0 0.0
2018-May-23 19:00N 30°02' W 093°15'0 0.0
2018-May-23 18:30N 30°02' W 093°15'1 1.4
2018-May-23 18:00N 30°02' W 093°14'1 3.0
2018-May-23 17:30N 30°00' W 093°14'2 3.6
2018-May-23 17:00N 29°59' W 093°12'1 2.9
2018-May-23 16:30N 29°58' W 093°11'0 0.0
2018-May-23 16:00N 29°58' W 093°11'0 0.0
2018-May-23 15:30N 29°58' W 093°11'0 0.0
2018-May-23 15:00N 29°58' W 093°11'0 0.0
2018-May-23 14:30N 29°58' W 093°11'0 0.0
2018-May-23 14:00N 29°58' W 093°11'0 0.0
2018-May-23 13:30N 29°58' W 093°11'0 0.0
2018-May-23 13:00N 29°58' W 093°11'0 0.0
2018-May-23 12:30N 29°58' W 093°11'0 0.0
2018-May-23 12:00N 29°58' W 093°11'0 0.0
2018-May-23 11:30N 29°58' W 093°11'0 0.8
2018-May-23 11:00N 29°57' W 093°11'1 1.1
2018-May-23 10:30N 29°57' W 093°10'0 0.0
2018-May-23 10:00N 29°57' W 093°10'1 2.9
2018-May-23 09:30N 29°56' W 093°09'2 4.4
2018-May-23 09:00N 29°56' W 093°07'2 4.1
2018-May-23 08:30N 29°56' W 093°04'2 3.7
2018-May-23 08:00N 29°56' W 093°02'34 4.7
2018-May-23 00:38N 29°52' W 092°23'1 4.7
2018-May-23 00:29N 29°52' W 092°22'2 4.2
2018-May-23 00:00N 29°51' W 092°20'2 4.6
2018-May-22 23:31N 29°50' W 092°18'2 4.4
2018-May-22 23:00N 29°48' W 092°16'2 4.7
2018-May-22 22:30N 29°48' W 092°13'1 2.2
2018-May-22 22:01N 29°47' W 092°12'1 1.7
2018-May-22 21:31N 29°47' W 092°11'0 0.8
2018-May-22 21:00N 29°47' W 092°11'2 4.8
2018-May-22 20:30N 29°47' W 092°08'2 4.0
2018-May-22 20:00N 29°48' W 092°06'2 4.9
2018-May-22 19:30N 29°49' W 092°03'139 2.9
2018-May-20 18:43N 31°59' W 091°06'3 9.2
2018-May-20 18:26N 32°01' W 091°04'5 9.8
2018-May-20 17:55N 32°06' W 091°06'2 5.0
2018-May-20 17:28N 32°08' W 091°04'4 7.9
2018-May-20 17:00N 32°09' W 091°00'5 9.9
2018-May-20 16:30N 32°14' W 090°59'5 9.5
2018-May-20 16:00N 32°18' W 090°55'3 5.9
2018-May-20 15:30N 32°21' W 090°56'2 4.3
2018-May-20 15:00N 32°21' W 090°58'4 7.5
2018-May-20 14:30N 32°24' W 090°60'5 9.6
2018-May-20 14:01N 32°27' W 091°05'5 8.5
2018-May-20 13:25N 32°31' W 091°06'5 9.6
2018-May-20 12:52N 32°36' W 091°09'4 9.3
2018-May-20 12:30N 32°40' W 091°08'  
Track history (hours):
 
Tides and Currents Weather Stations Pressure Air Temp Water Temp Dewpoint Dewpoint Depression Visibility Wind Speed Wind Dir Waves Ship Positions

San Antonio

Owner: Higman Barge Lines, Inc., Orange, TX. More information available from US FCC via Universal Licensing System and Coast Guard Vessel Documentation Center.

Last reported at 2018-May-27 22:26 UTC. Time now 2018-May-28 01:02 UTC.
Position N 29°47' W 095°05'.

Length 20 m; draft 9 m.

Type: Towing. MMSI: 367507730.

Date/timePositionNaut miles runAvg speedWind from/ knotsBaromVisibWave heightAir tempDewpointWater temp
2018-May-27 22:26N 29°47' W 095°05'3 6.1
2018-May-27 22:00N 29°45' W 095°06'3 0.4
2018-May-27 13:27N 29°48' W 095°04'0 0.3
2018-May-27 12:41N 29°47' W 095°04'1 0.2
2018-May-27 08:23N 29°47' W 095°05'1 0.1
2018-May-26 23:23N 29°46' W 095°05'3 0.5
2018-May-26 17:40N 29°44' W 095°08'0 0.0
2018-May-26 17:14N 29°44' W 095°08'0 0.0
2018-May-26 16:15N 29°44' W 095°08'0 0.0
2018-May-26 15:57N 29°44' W 095°08'0 0.0
2018-May-26 15:28N 29°44' W 095°08'0 0.0
2018-May-26 05:07N 29°44' W 095°08'0 0.0
2018-May-26 04:55N 29°44' W 095°08'0 0.0
2018-May-26 04:25N 29°44' W 095°08'0 0.0
2018-May-26 03:55N 29°44' W 095°08'0 0.0
2018-May-26 03:25N 29°44' W 095°08'1 1.0
2018-May-26 02:33N 29°44' W 095°07'0 1.1
2018-May-26 02:08N 29°44' W 095°07'3 1.0
2018-May-25 23:04N 29°47' W 095°05'0 0.0
2018-May-25 22:59N 29°47' W 095°05'0 0.0
2018-May-25 22:30N 29°47' W 095°05'0 0.0
2018-May-25 21:56N 29°47' W 095°05'0 0.0
2018-May-25 21:30N 29°47' W 095°05'0 0.0
2018-May-25 21:00N 29°47' W 095°05'0 0.0
2018-May-25 20:30N 29°47' W 095°05'0 0.0
2018-May-25 19:58N 29°47' W 095°05'0 0.0
2018-May-25 19:28N 29°47' W 095°05'0 0.0
2018-May-25 19:00N 29°47' W 095°05'0 0.0
2018-May-25 18:29N 29°47' W 095°05'0 0.0
2018-May-25 18:00N 29°47' W 095°05'0 0.0
2018-May-25 17:29N 29°47' W 095°05'0 0.0
2018-May-25 17:00N 29°47' W 095°05'0 0.0
2018-May-25 16:28N 29°47' W 095°05'0 0.0
2018-May-25 15:59N 29°47' W 095°05'0 0.0
2018-May-25 15:30N 29°47' W 095°05'0 0.0
2018-May-25 07:31N 29°47' W 095°05'0 0.0
2018-May-25 07:16N 29°47' W 095°05'0 0.0
2018-May-25 06:57N 29°47' W 095°05'0 0.0
2018-May-25 05:57N 29°47' W 095°05'1 1.1
2018-May-25 05:22N 29°46' W 095°05'2 3.8
2018-May-25 04:52N 29°44' W 095°04'2 6.1
2018-May-25 04:28N 29°43' W 095°01'3 5.9
2018-May-25 04:00N 29°41' W 094°59'3 6.7
2018-May-25 03:30N 29°38' W 094°58'3 7.1
2018-May-25 03:00N 29°35' W 094°56'4 7.0
2018-May-25 02:30N 29°32' W 094°54'4 7.3
2018-May-25 02:00N 29°29' W 094°51'4 7.5
2018-May-25 01:30N 29°25' W 094°50'3 6.5
2018-May-25 01:00N 29°22' W 094°48'9 5.6
2018-May-24 23:24N 29°28' W 094°40'12 5.3
2018-May-24 21:03N 29°34' W 094°27'0 3.8
2018-May-24 21:00N 29°34' W 094°27'2 4.1
2018-May-24 20:27N 29°35' W 094°25'1 2.0
2018-May-24 20:00N 29°36' W 094°24'2 4.2
2018-May-24 19:29N 29°36' W 094°22'3 5.6
2018-May-24 19:00N 29°38' W 094°19'3 5.6
2018-May-24 18:30N 29°39' W 094°16'3 5.6
2018-May-24 18:00N 29°40' W 094°13'3 5.7
2018-May-24 17:30N 29°41' W 094°10'2 3.8
2018-May-24 17:00N 29°42' W 094°08'3 5.6
2018-May-24 16:30N 29°44' W 094°06'3 6.1
2018-May-24 16:01N 29°46' W 094°03'3 6.0
2018-May-24 15:30N 29°48' W 094°00'3 5.3
2018-May-24 15:00N 29°49' W 093°58'4 7.6
2018-May-24 14:30N 29°53' W 093°56'4 9.0
2018-May-24 14:00N 29°56' W 093°52'3 6.7
2018-May-24 13:30N 29°59' W 093°50'25 5.6
2018-May-24 09:00N 30°04' W 093°22'0 0.5
2018-May-24 08:30N 30°04' W 093°21'1 1.3
2018-May-24 08:00N 30°04' W 093°21'2 4.1
2018-May-24 07:30N 30°06' W 093°19'1 2.8
2018-May-24 07:00N 30°05' W 093°18'1 1.0
2018-May-24 06:30N 30°05' W 093°17'1 2.2
2018-May-24 06:00N 30°04' W 093°16'0 0.5
2018-May-24 05:30N 30°04' W 093°16'0 0.0
2018-May-24 05:00N 30°04' W 093°16'0 0.0
2018-May-24 04:30N 30°04' W 093°16'0 0.0
2018-May-24 03:59N 30°04' W 093°16'0 0.0
2018-May-24 03:30N 30°04' W 093°16'0 0.0
2018-May-24 03:00N 30°04' W 093°16'0 0.0
2018-May-24 02:30N 30°04' W 093°16'0 0.0
2018-May-24 01:59N 30°04' W 093°16'0 0.0
2018-May-24 01:30N 30°04' W 093°16'0 0.0
2018-May-24 01:00N 30°04' W 093°16'0 0.1
2018-May-24 00:29N 30°04' W 093°16'0 0.0
2018-May-24 00:01N 30°04' W 093°16'0 0.0
2018-May-23 23:31N 30°04' W 093°16'0 0.4
2018-May-23 23:00N 30°04' W 093°16'1 1.0
2018-May-23 22:30N 30°03' W 093°16'1 2.6
2018-May-23 22:00N 30°02' W 093°15'0 0.8
2018-May-23 21:30N 30°02' W 093°15'0 0.0
2018-May-23 21:00N 30°02' W 093°15'0 0.0
2018-May-23 20:31N 30°02' W 093°15'0 0.0
2018-May-23 20:01N 30°02' W 093°15'0 0.0
2018-May-23 19:30N 30°02' W 093°15'0 0.0
2018-May-23 19:00N 30°02' W 093°15'0 0.0
2018-May-23 18:30N 30°02' W 093°15'1 1.4
2018-May-23 18:00N 30°02' W 093°14'1 3.0
2018-May-23 17:30N 30°00' W 093°14'2 3.6
2018-May-23 17:00N 29°59' W 093°12'1 2.9
2018-May-23 16:30N 29°58' W 093°11'0 0.0
2018-May-23 16:00N 29°58' W 093°11'0 0.0
2018-May-23 15:30N 29°58' W 093°11'0 0.0
2018-May-23 15:00N 29°58' W 093°11'0 0.0
2018-May-23 14:30N 29°58' W 093°11'0 0.0
2018-May-23 14:00N 29°58' W 093°11'0 0.0
2018-May-23 13:30N 29°58' W 093°11'0 0.0
2018-May-23 13:00N 29°58' W 093°11'0 0.0
2018-May-23 12:30N 29°58' W 093°11'0 0.0
2018-May-23 12:00N 29°58' W 093°11'0 0.0
2018-May-23 11:30N 29°58' W 093°11'0 0.8
2018-May-23 11:00N 29°57' W 093°11'1 1.1
2018-May-23 10:30N 29°57' W 093°10'0 0.0
2018-May-23 10:00N 29°57' W 093°10'1 2.9
2018-May-23 09:30N 29°56' W 093°09'2 4.4
2018-May-23 09:00N 29°56' W 093°07'2 4.1
2018-May-23 08:30N 29°56' W 093°04'2 3.7
2018-May-23 08:00N 29°56' W 093°02'34 4.7
2018-May-23 00:38N 29°52' W 092°23'1 4.7
2018-May-23 00:29N 29°52' W 092°22'2 4.2
2018-May-23 00:00N 29°51' W 092°20'2 4.6
2018-May-22 23:31N 29°50' W 092°18'2 4.4
2018-May-22 23:00N 29°48' W 092°16'2 4.7
2018-May-22 22:30N 29°48' W 092°13'1 2.2
2018-May-22 22:01N 29°47' W 092°12'1 1.7
2018-May-22 21:31N 29°47' W 092°11'0 0.8
2018-May-22 21:00N 29°47' W 092°11'2 4.8
2018-May-22 20:30N 29°47' W 092°08'2 4.0
2018-May-22 20:00N 29°48' W 092°06'2 4.9
2018-May-22 19:30N 29°49' W 092°03'139 2.9
2018-May-20 18:43N 31°59' W 091°06'3 9.2
2018-May-20 18:26N 32°01' W 091°04'5 9.8
2018-May-20 17:55N 32°06' W 091°06'2 5.0
2018-May-20 17:28N 32°08' W 091°04'4 7.9
2018-May-20 17:00N 32°09' W 091°00'5 9.9
2018-May-20 16:30N 32°14' W 090°59'5 9.5
2018-May-20 16:00N 32°18' W 090°55'3 5.9
2018-May-20 15:30N 32°21' W 090°56'2 4.3
2018-May-20 15:00N 32°21' W 090°58'4 7.5
2018-May-20 14:30N 32°24' W 090°60'5 9.6
2018-May-20 14:01N 32°27' W 091°05'5 8.5
2018-May-20 13:25N 32°31' W 091°06'5 9.6
2018-May-20 12:52N 32°36' W 091°09'4 9.3
2018-May-20 12:30N 32°40' W 091°08'  

Dump ship's entire track history